sensor_id;sensor_type;location;lat;lon;timestamp;pressure;altitude;pressure_sealevel;temperature;humidity
8705;BME280;4389;41.932;25.904;2022-08-04T00:00:19;100476.94;;;20.11;74.84
8705;BME280;4389;41.932;25.904;2022-08-04T00:03:09;100473.75;;;20.01;75.28
8705;BME280;4389;41.932;25.904;2022-08-04T00:05:51;100480.28;;;19.92;75.57
8705;BME280;4389;41.932;25.904;2022-08-04T00:08:28;100479.41;;;19.85;75.62
8705;BME280;4389;41.932;25.904;2022-08-04T00:11:00;100477.84;;;19.97;75.37
8705;BME280;4389;41.932;25.904;2022-08-04T00:13:30;100480.22;;;19.79;76.19
8705;BME280;4389;41.932;25.904;2022-08-04T00:16:04;100487.00;;;19.54;77.17
8705;BME280;4389;41.932;25.904;2022-08-04T00:18:34;100485.31;;;19.47;77.92
8705;BME280;4389;41.932;25.904;2022-08-04T00:21:04;100487.78;;;19.48;78.00
8705;BME280;4389;41.932;25.904;2022-08-04T00:23:33;100488.44;;;19.50;77.83
8705;BME280;4389;41.932;25.904;2022-08-04T00:26:01;100486.88;;;19.41;78.34
8705;BME280;4389;41.932;25.904;2022-08-04T00:28:28;100494.44;;;19.52;78.49
8705;BME280;4389;41.932;25.904;2022-08-04T00:30:55;100484.72;;;19.51;78.39
8705;BME280;4389;41.932;25.904;2022-08-04T00:33:24;100488.66;;;19.55;77.68
8705;BME280;4389;41.932;25.904;2022-08-04T00:35:52;100493.25;;;19.61;77.36
8705;BME280;4389;41.932;25.904;2022-08-04T00:38:19;100495.47;;;19.51;77.81
8705;BME280;4389;41.932;25.904;2022-08-04T00:40:51;100495.94;;;19.61;77.70
8705;BME280;4389;41.932;25.904;2022-08-04T00:43:29;100492.63;;;19.59;78.05
8705;BME280;4389;41.932;25.904;2022-08-04T00:51:48;100490.59;;;19.19;79.09
8705;BME280;4389;41.932;25.904;2022-08-04T00:54:23;100499.53;;;19.26;79.00
8705;BME280;4389;41.932;25.904;2022-08-04T00:57:16;100486.75;;;19.28;79.11
8705;BME280;4389;41.932;25.904;2022-08-04T00:59:56;100497.34;;;19.15;79.85
8705;BME280;4389;41.932;25.904;2022-08-04T01:02:38;100491.81;;;19.02;80.95
8705;BME280;4389;41.932;25.904;2022-08-04T01:05:18;100489.88;;;19.11;81.15
8705;BME280;4389;41.932;25.904;2022-08-04T01:07:59;100488.50;;;19.00;81.24
8705;BME280;4389;41.932;25.904;2022-08-04T01:10:40;100493.09;;;19.06;80.70
8705;BME280;4389;41.932;25.904;2022-08-04T01:13:36;100493.63;;;19.16;80.52
8705;BME280;4389;41.932;25.904;2022-08-04T01:16:08;100488.19;;;19.24;80.13
8705;BME280;4389;41.932;25.904;2022-08-04T01:18:47;100499.94;;;19.23;79.55
8705;BME280;4389;41.932;25.904;2022-08-04T01:21:52;100501.13;;;19.06;80.81
8705;BME280;4389;41.932;25.904;2022-08-04T01:24:40;100497.94;;;18.96;80.71
8705;BME280;4389;41.932;25.904;2022-08-04T01:27:17;100499.25;;;19.00;81.07
8705;BME280;4389;41.932;25.904;2022-08-04T01:29:55;100506.78;;;19.11;79.84
8705;BME280;4389;41.932;25.904;2022-08-04T01:32:25;100501.66;;;18.95;81.07
8705;BME280;4389;41.932;25.904;2022-08-04T01:34:59;100493.44;;;18.97;80.71
8705;BME280;4389;41.932;25.904;2022-08-04T01:37:38;100498.97;;;18.95;81.20
8705;BME280;4389;41.932;25.904;2022-08-04T01:40:08;100504.97;;;18.97;81.03
8705;BME280;4389;41.932;25.904;2022-08-04T01:42:35;100503.75;;;19.00;80.74
8705;BME280;4389;41.932;25.904;2022-08-04T01:45:06;100498.41;;;18.85;80.79
8705;BME280;4389;41.932;25.904;2022-08-04T01:47:35;100507.25;;;18.65;81.94
8705;BME280;4389;41.932;25.904;2022-08-04T01:50:05;100494.13;;;18.56;82.24
8705;BME280;4389;41.932;25.904;2022-08-04T01:52:34;100500.22;;;18.50;82.36
8705;BME280;4389;41.932;25.904;2022-08-04T01:55:04;100497.38;;;18.66;82.01
8705;BME280;4389;41.932;25.904;2022-08-04T01:57:32;100509.25;;;18.77;82.22
8705;BME280;4389;41.932;25.904;2022-08-04T02:00:00;100515.22;;;18.59;83.02
8705;BME280;4389;41.932;25.904;2022-08-04T02:02:28;100504.22;;;18.54;83.50
8705;BME280;4389;41.932;25.904;2022-08-04T02:04:55;100505.25;;;18.53;83.23
8705;BME280;4389;41.932;25.904;2022-08-04T02:07:37;100506.41;;;18.65;83.04
8705;BME280;4389;41.932;25.904;2022-08-04T02:10:07;100509.72;;;18.81;82.19
8705;BME280;4389;41.932;25.904;2022-08-04T02:12:51;100509.00;;;18.73;82.59
8705;BME280;4389;41.932;25.904;2022-08-04T02:15:26;100504.41;;;18.67;83.19
8705;BME280;4389;41.932;25.904;2022-08-04T02:18:00;100508.00;;;18.74;82.81
8705;BME280;4389;41.932;25.904;2022-08-04T02:20:31;100505.41;;;18.66;83.34
8705;BME280;4389;41.932;25.904;2022-08-04T02:23:02;100503.19;;;18.69;83.19
8705;BME280;4389;41.932;25.904;2022-08-04T02:25:39;100498.81;;;18.68;82.69
8705;BME280;4389;41.932;25.904;2022-08-04T02:28:20;100500.97;;;18.73;82.74
8705;BME280;4389;41.932;25.904;2022-08-04T02:31:00;100498.75;;;18.62;82.91
8705;BME280;4389;41.932;25.904;2022-08-04T02:33:35;100495.72;;;18.36;83.43
8705;BME280;4389;41.932;25.904;2022-08-04T02:36:04;100492.06;;;18.29;85.10
8705;BME280;4389;41.932;25.904;2022-08-04T02:38:46;100505.84;;;18.26;85.48
8705;BME280;4389;41.932;25.904;2022-08-04T02:41:19;100510.97;;;18.35;85.00
8705;BME280;4389;41.932;25.904;2022-08-04T02:43:47;100503.50;;;18.31;85.81
8705;BME280;4389;41.932;25.904;2022-08-04T02:46:16;100502.72;;;18.22;85.68
8705;BME280;4389;41.932;25.904;2022-08-04T02:48:47;100501.50;;;18.10;85.76
8705;BME280;4389;41.932;25.904;2022-08-04T02:51:16;100507.31;;;17.99;86.95
8705;BME280;4389;41.932;25.904;2022-08-04T02:53:45;100507.41;;;18.06;86.52
8705;BME280;4389;41.932;25.904;2022-08-04T02:56:14;100518.13;;;18.06;86.05
8705;BME280;4389;41.932;25.904;2022-08-04T02:58:45;100514.81;;;18.04;86.67
8705;BME280;4389;41.932;25.904;2022-08-04T03:01:14;100504.75;;;18.20;85.56
8705;BME280;4389;41.932;25.904;2022-08-04T03:03:50;100510.81;;;18.29;85.46
8705;BME280;4389;41.932;25.904;2022-08-04T03:06:48;100513.38;;;18.30;85.13
8705;BME280;4389;41.932;25.904;2022-08-04T03:09:57;100510.19;;;18.27;84.61
8705;BME280;4389;41.932;25.904;2022-08-04T03:12:56;100502.63;;;18.16;84.78
8705;BME280;4389;41.932;25.904;2022-08-04T03:30:47;100527.84;;;18.65;83.04
8705;BME280;4389;41.932;25.904;2022-08-04T03:33:44;100528.94;;;19.34;80.29
8705;BME280;4389;41.932;25.904;2022-08-04T03:40:07;100537.75;;;20.46;75.01
8705;BME280;4389;41.932;25.904;2022-08-04T03:46:32;100525.66;;;21.10;71.81
8705;BME280;4389;41.932;25.904;2022-08-04T03:52:12;100539.03;;;22.48;66.28
8705;BME280;4389;41.932;25.904;2022-08-04T03:55:36;100534.69;;;23.11;63.69
8705;BME280;4389;41.932;25.904;2022-08-04T04:01:11;100539.47;;;24.08;59.79
8705;BME280;4389;41.932;25.904;2022-08-04T04:04:02;100548.63;;;24.07;59.62
8705;BME280;4389;41.932;25.904;2022-08-04T04:09:54;100547.66;;;24.44;58.11
8705;BME280;4389;41.932;25.904;2022-08-04T04:12:51;100540.16;;;25.00;56.33
8705;BME280;4389;41.932;25.904;2022-08-04T04:15:37;100548.06;;;25.01;56.51
8705;BME280;4389;41.932;25.904;2022-08-04T04:18:28;100542.19;;;25.04;57.48
8705;BME280;4389;41.932;25.904;2022-08-04T04:21:26;100542.25;;;25.34;56.35
8705;BME280;4389;41.932;25.904;2022-08-04T04:24:20;100548.34;;;25.11;56.53
8705;BME280;4389;41.932;25.904;2022-08-04T04:26:56;100548.91;;;25.61;55.23
8705;BME280;4389;41.932;25.904;2022-08-04T04:29:55;100548.72;;;25.74;55.17
8705;BME280;4389;41.932;25.904;2022-08-04T04:32:34;100548.13;;;26.36;53.33
8705;BME280;4389;41.932;25.904;2022-08-04T04:35:13;100553.78;;;26.23;53.18
8705;BME280;4389;41.932;25.904;2022-08-04T04:38:22;100543.63;;;26.07;54.25
8705;BME280;4389;41.932;25.904;2022-08-04T04:41:02;100550.34;;;26.27;53.64
8705;BME280;4389;41.932;25.904;2022-08-04T04:43:49;100548.34;;;26.46;53.33
8705;BME280;4389;41.932;25.904;2022-08-04T04:46:29;100551.41;;;26.38;53.38
8705;BME280;4389;41.932;25.904;2022-08-04T04:49:04;100548.72;;;26.38;53.47
8705;BME280;4389;41.932;25.904;2022-08-04T04:51:42;100550.22;;;26.80;52.35
8705;BME280;4389;41.932;25.904;2022-08-04T04:54:16;100535.66;;;27.37;51.18
8705;BME280;4389;41.932;25.904;2022-08-04T04:56:49;100549.22;;;27.93;49.28
8705;BME280;4389;41.932;25.904;2022-08-04T04:59:21;100537.56;;;27.36;50.93
8705;BME280;4389;41.932;25.904;2022-08-04T05:02:06;100545.41;;;26.01;55.11
8705;BME280;4389;41.932;25.904;2022-08-04T05:07:48;100552.91;;;24.39;61.60
8705;BME280;4389;41.932;25.904;2022-08-04T05:10:37;100546.88;;;24.19;62.95
8705;BME280;4389;41.932;25.904;2022-08-04T05:13:16;100545.34;;;24.05;64.00
8705;BME280;4389;41.932;25.904;2022-08-04T05:15:52;100546.25;;;24.17;63.73
8705;BME280;4389;41.932;25.904;2022-08-04T05:18:27;100549.97;;;23.98;65.26
8705;BME280;4389;41.932;25.904;2022-08-04T05:21:06;100553.06;;;24.26;64.08
8705;BME280;4389;41.932;25.904;2022-08-04T05:23:36;100554.75;;;24.21;65.09
8705;BME280;4389;41.932;25.904;2022-08-04T05:26:12;100551.66;;;23.93;66.53
8705;BME280;4389;41.932;25.904;2022-08-04T05:28:45;100551.00;;;23.66;67.30
8705;BME280;4389;41.932;25.904;2022-08-04T05:31:17;100542.63;;;23.74;67.95
8705;BME280;4389;41.932;25.904;2022-08-04T05:33:49;100555.38;;;23.98;67.30
8705;BME280;4389;41.932;25.904;2022-08-04T05:36:21;100557.06;;;23.62;68.71
8705;BME280;4389;41.932;25.904;2022-08-04T05:38:52;100552.84;;;23.41;69.68
8705;BME280;4389;41.932;25.904;2022-08-04T05:41:21;100550.75;;;23.43;70.09
8705;BME280;4389;41.932;25.904;2022-08-04T05:43:49;100547.16;;;23.80;69.10
8705;BME280;4389;41.932;25.904;2022-08-04T05:46:16;100551.63;;;23.99;68.26
8705;BME280;4389;41.932;25.904;2022-08-04T05:48:44;100555.91;;;24.31;67.39
8705;BME280;4389;41.932;25.904;2022-08-04T05:51:14;100558.47;;;24.26;67.01
8705;BME280;4389;41.932;25.904;2022-08-04T05:53:42;100562.06;;;24.38;66.62
8705;BME280;4389;41.932;25.904;2022-08-04T05:56:13;100566.00;;;24.42;66.29
8705;BME280;4389;41.932;25.904;2022-08-04T05:58:40;100554.50;;;24.46;66.64
8705;BME280;4389;41.932;25.904;2022-08-04T06:01:09;100556.91;;;24.54;66.31
8705;BME280;4389;41.932;25.904;2022-08-04T06:03:37;100556.34;;;24.28;67.05
8705;BME280;4389;41.932;25.904;2022-08-04T06:06:05;100559.38;;;24.38;66.94
8705;BME280;4389;41.932;25.904;2022-08-04T06:08:35;100548.75;;;24.61;66.17
8705;BME280;4389;41.932;25.904;2022-08-04T06:11:04;100563.50;;;24.65;65.25
8705;BME280;4389;41.932;25.904;2022-08-04T06:13:38;100563.97;;;24.62;65.66
8705;BME280;4389;41.932;25.904;2022-08-04T06:16:07;100555.28;;;24.89;63.68
8705;BME280;4389;41.932;25.904;2022-08-04T06:18:36;100553.50;;;25.01;62.36
8705;BME280;4389;41.932;25.904;2022-08-04T06:21:06;100557.91;;;25.14;62.88
8705;BME280;4389;41.932;25.904;2022-08-04T06:23:38;100545.31;;;25.19;62.05
8705;BME280;4389;41.932;25.904;2022-08-04T06:26:09;100539.19;;;25.30;62.12
8705;BME280;4389;41.932;25.904;2022-08-04T06:28:37;100543.59;;;25.54;59.90
8705;BME280;4389;41.932;25.904;2022-08-04T06:31:07;100544.03;;;25.81;59.30
8705;BME280;4389;41.932;25.904;2022-08-04T06:33:35;100536.03;;;25.86;58.69
8705;BME280;4389;41.932;25.904;2022-08-04T06:36:05;100545.28;;;25.67;59.26
8705;BME280;4389;41.932;25.904;2022-08-04T06:38:33;100538.50;;;25.76;59.37
8705;BME280;4389;41.932;25.904;2022-08-04T06:41:03;100544.22;;;25.68;58.79
8705;BME280;4389;41.932;25.904;2022-08-04T06:43:35;100536.50;;;25.83;59.18
8705;BME280;4389;41.932;25.904;2022-08-04T06:46:03;100543.97;;;25.99;58.57
8705;BME280;4389;41.932;25.904;2022-08-04T06:48:32;100541.72;;;25.96;58.01
8705;BME280;4389;41.932;25.904;2022-08-04T06:50:59;100536.56;;;26.06;57.43
8705;BME280;4389;41.932;25.904;2022-08-04T06:53:27;100537.50;;;26.23;57.13
8705;BME280;4389;41.932;25.904;2022-08-04T06:55:55;100542.69;;;26.36;56.55
8705;BME280;4389;41.932;25.904;2022-08-04T06:58:26;100539.91;;;26.54;55.26
8705;BME280;4389;41.932;25.904;2022-08-04T07:00:56;100535.81;;;26.91;54.00
8705;BME280;4389;41.932;25.904;2022-08-04T07:03:26;100543.59;;;26.99;53.61
8705;BME280;4389;41.932;25.904;2022-08-04T07:05:54;100536.28;;;26.88;53.64
8705;BME280;4389;41.932;25.904;2022-08-04T07:08:21;100542.47;;;26.72;53.52
8705;BME280;4389;41.932;25.904;2022-08-04T07:10:49;100538.41;;;26.86;53.16
8705;BME280;4389;41.932;25.904;2022-08-04T07:13:19;100526.09;;;26.95;52.10
8705;BME280;4389;41.932;25.904;2022-08-04T07:15:48;100541.78;;;27.16;52.11
8705;BME280;4389;41.932;25.904;2022-08-04T07:18:16;100521.50;;;27.35;50.53
8705;BME280;4389;41.932;25.904;2022-08-04T07:20:44;100531.50;;;27.46;51.00
8705;BME280;4389;41.932;25.904;2022-08-04T07:23:12;100530.31;;;27.42;50.50
8705;BME280;4389;41.932;25.904;2022-08-04T07:25:42;100532.59;;;27.61;50.57
8705;BME280;4389;41.932;25.904;2022-08-04T07:28:09;100523.06;;;27.47;51.20
8705;BME280;4389;41.932;25.904;2022-08-04T07:30:40;100522.44;;;27.57;51.86
8705;BME280;4389;41.932;25.904;2022-08-04T07:33:10;100531.34;;;27.97;49.97
8705;BME280;4389;41.932;25.904;2022-08-04T07:35:38;100512.00;;;27.98;50.06
8705;BME280;4389;41.932;25.904;2022-08-04T07:38:06;100521.69;;;28.06;48.77
8705;BME280;4389;41.932;25.904;2022-08-04T07:40:34;100526.50;;;28.20;49.00
8705;BME280;4389;41.932;25.904;2022-08-04T07:43:01;100525.38;;;28.16;49.26
8705;BME280;4389;41.932;25.904;2022-08-04T07:45:29;100519.91;;;28.33;48.33
8705;BME280;4389;41.932;25.904;2022-08-04T07:47:56;100521.56;;;28.34;48.21
8705;BME280;4389;41.932;25.904;2022-08-04T07:50:24;100519.59;;;28.46;48.37
8705;BME280;4389;41.932;25.904;2022-08-04T07:52:52;100522.25;;;28.41;48.14
8705;BME280;4389;41.932;25.904;2022-08-04T07:55:19;100519.84;;;28.44;48.11
8705;BME280;4389;41.932;25.904;2022-08-04T07:57:47;100521.84;;;28.70;47.99
8705;BME280;4389;41.932;25.904;2022-08-04T08:00:15;100520.44;;;28.68;47.65
8705;BME280;4389;41.932;25.904;2022-08-04T08:02:42;100508.31;;;28.59;46.72
8705;BME280;4389;41.932;25.904;2022-08-04T08:05:13;100508.59;;;28.79;47.47
8705;BME280;4389;41.932;25.904;2022-08-04T08:07:45;100509.28;;;28.91;46.86
8705;BME280;4389;41.932;25.904;2022-08-04T08:10:13;100503.41;;;28.99;46.76
8705;BME280;4389;41.932;25.904;2022-08-04T08:12:40;100500.22;;;29.07;45.96
8705;BME280;4389;41.932;25.904;2022-08-04T08:15:09;100497.03;;;29.15;45.78
8705;BME280;4389;41.932;25.904;2022-08-04T08:17:37;100500.63;;;29.15;45.55
8705;BME280;4389;41.932;25.904;2022-08-04T08:20:06;100492.28;;;29.27;44.75
8705;BME280;4389;41.932;25.904;2022-08-04T08:22:34;100496.66;;;29.28;44.60
8705;BME280;4389;41.932;25.904;2022-08-04T08:25:04;100495.56;;;29.29;44.21
8705;BME280;4389;41.932;25.904;2022-08-04T08:27:31;100500.72;;;29.25;44.73
8705;BME280;4389;41.932;25.904;2022-08-04T08:29:58;100492.44;;;29.15;43.56
8705;BME280;4389;41.932;25.904;2022-08-04T08:32:26;100497.31;;;29.40;44.50
8705;BME280;4389;41.932;25.904;2022-08-04T08:34:53;100492.03;;;29.55;43.43
8705;BME280;4389;41.932;25.904;2022-08-04T08:37:25;100492.22;;;29.75;43.74
8705;BME280;4389;41.932;25.904;2022-08-04T08:39:57;100487.84;;;29.74;42.67
8705;BME280;4389;41.932;25.904;2022-08-04T08:42:45;100487.75;;;29.95;42.47
8705;BME280;4389;41.932;25.904;2022-08-04T08:45:27;100485.34;;;30.04;42.49
8705;BME280;4389;41.932;25.904;2022-08-04T08:48:10;100493.97;;;30.22;41.54
8705;BME280;4389;41.932;25.904;2022-08-04T08:53:58;100480.88;;;29.93;41.40
8705;BME280;4389;41.932;25.904;2022-08-04T08:56:37;100486.03;;;30.21;41.84
8705;BME280;4389;41.932;25.904;2022-08-04T08:59:17;100477.38;;;30.33;40.80
8705;BME280;4389;41.932;25.904;2022-08-04T09:02:06;100469.81;;;30.50;40.50
8705;BME280;4389;41.932;25.904;2022-08-04T09:04:56;100476.16;;;30.56;39.27
8705;BME280;4389;41.932;25.904;2022-08-04T09:07:52;100469.03;;;30.55;39.91
8705;BME280;4389;41.932;25.904;2022-08-04T09:10:25;100469.41;;;30.73;39.37
8705;BME280;4389;41.932;25.904;2022-08-04T09:12:58;100477.63;;;30.73;39.23
8705;BME280;4389;41.932;25.904;2022-08-04T09:15:34;100473.78;;;30.79;38.82
8705;BME280;4389;41.932;25.904;2022-08-04T09:18:06;100466.78;;;30.47;39.32
8705;BME280;4389;41.932;25.904;2022-08-04T09:20:38;100468.59;;;30.73;38.19
8705;BME280;4389;41.932;25.904;2022-08-04T09:23:17;100466.09;;;30.71;38.53
8705;BME280;4389;41.932;25.904;2022-08-04T09:25:50;100456.31;;;30.80;38.60
8705;BME280;4389;41.932;25.904;2022-08-04T09:28:22;100447.66;;;31.08;37.63
8705;BME280;4389;41.932;25.904;2022-08-04T09:30:56;100451.00;;;31.25;37.52
8705;BME280;4389;41.932;25.904;2022-08-04T09:33:37;100447.66;;;31.08;38.48
8705;BME280;4389;41.932;25.904;2022-08-04T09:36:14;100450.47;;;31.38;38.42
8705;BME280;4389;41.932;25.904;2022-08-04T09:38:48;100451.00;;;31.35;37.57
8705;BME280;4389;41.932;25.904;2022-08-04T09:41:26;100453.19;;;31.33;38.57
8705;BME280;4389;41.932;25.904;2022-08-04T09:44:03;100451.56;;;31.52;38.75
8705;BME280;4389;41.932;25.904;2022-08-04T09:46:39;100450.72;;;31.52;36.76
8705;BME280;4389;41.932;25.904;2022-08-04T09:49:13;100440.59;;;31.32;36.89
8705;BME280;4389;41.932;25.904;2022-08-04T09:51:49;100453.22;;;31.58;36.02
8705;BME280;4389;41.932;25.904;2022-08-04T09:54:24;100451.56;;;31.67;35.79
8705;BME280;4389;41.932;25.904;2022-08-04T09:57:03;100447.75;;;31.83;35.11
8705;BME280;4389;41.932;25.904;2022-08-04T09:59:40;100446.09;;;31.97;34.37
8705;BME280;4389;41.932;25.904;2022-08-04T10:02:12;100430.25;;;31.79;35.10
8705;BME280;4389;41.932;25.904;2022-08-04T10:04:42;100442.81;;;31.90;35.48
8705;BME280;4389;41.932;25.904;2022-08-04T10:07:26;100440.56;;;32.12;34.53
8705;BME280;4389;41.932;25.904;2022-08-04T10:10:09;100430.44;;;32.33;34.40
8705;BME280;4389;41.932;25.904;2022-08-04T10:13:02;100430.06;;;32.49;35.09
8705;BME280;4389;41.932;25.904;2022-08-04T10:15:39;100435.00;;;32.52;32.48
8705;BME280;4389;41.932;25.904;2022-08-04T10:18:24;100429.00;;;32.45;32.54
8705;BME280;4389;41.932;25.904;2022-08-04T10:21:00;100427.31;;;32.59;33.27
8705;BME280;4389;41.932;25.904;2022-08-04T10:23:47;100423.22;;;33.05;32.68
8705;BME280;4389;41.932;25.904;2022-08-04T10:26:26;100437.56;;;32.92;33.47
8705;BME280;4389;41.932;25.904;2022-08-04T10:28:57;100420.13;;;32.63;33.89
8705;BME280;4389;41.932;25.904;2022-08-04T10:31:31;100414.31;;;32.80;33.44
8705;BME280;4389;41.932;25.904;2022-08-04T10:34:04;100416.19;;;32.89;33.31
8705;BME280;4389;41.932;25.904;2022-08-04T10:36:40;100409.16;;;32.68;32.37
8705;BME280;4389;41.932;25.904;2022-08-04T10:39:13;100405.31;;;32.64;32.58
8705;BME280;4389;41.932;25.904;2022-08-04T10:41:49;100404.00;;;32.57;32.19
8705;BME280;4389;41.932;25.904;2022-08-04T10:44:25;100394.78;;;32.91;31.41
8705;BME280;4389;41.932;25.904;2022-08-04T10:46:57;100396.44;;;33.31;31.78
8705;BME280;4389;41.932;25.904;2022-08-04T10:49:36;100394.25;;;33.61;31.80
8705;BME280;4389;41.932;25.904;2022-08-04T10:52:07;100384.78;;;33.77;31.23
8705;BME280;4389;41.932;25.904;2022-08-04T10:54:42;100383.94;;;33.48;31.29
8705;BME280;4389;41.932;25.904;2022-08-04T10:57:18;100377.31;;;33.16;31.29
8705;BME280;4389;41.932;25.904;2022-08-04T10:59:52;100379.25;;;33.15;31.56
8705;BME280;4389;41.932;25.904;2022-08-04T11:02:28;100382.84;;;33.49;32.17
8705;BME280;4389;41.932;25.904;2022-08-04T11:05:11;100372.66;;;33.55;30.89
8705;BME280;4389;41.932;25.904;2022-08-04T11:07:43;100368.38;;;33.39;31.81
8705;BME280;4389;41.932;25.904;2022-08-04T11:10:12;100369.84;;;33.26;32.08
8705;BME280;4389;41.932;25.904;2022-08-04T11:12:41;100370.72;;;32.78;31.74
8705;BME280;4389;41.932;25.904;2022-08-04T11:15:11;100361.16;;;32.71;32.10
8705;BME280;4389;41.932;25.904;2022-08-04T11:17:46;100364.28;;;32.98;31.98
8705;BME280;4389;41.932;25.904;2022-08-04T11:20:22;100365.53;;;33.15;31.62
8705;BME280;4389;41.932;25.904;2022-08-04T11:22:54;100373.06;;;33.38;31.64
8705;BME280;4389;41.932;25.904;2022-08-04T11:25:28;100361.56;;;33.36;30.58
8705;BME280;4389;41.932;25.904;2022-08-04T11:28:03;100364.50;;;33.73;30.04
8705;BME280;4389;41.932;25.904;2022-08-04T11:30:40;100346.94;;;33.98;29.54
8705;BME280;4389;41.932;25.904;2022-08-04T11:33:16;100354.63;;;33.72;30.32
8705;BME280;4389;41.932;25.904;2022-08-04T11:35:51;100349.69;;;33.69;29.79
8705;BME280;4389;41.932;25.904;2022-08-04T11:38:26;100348.34;;;33.95;29.49
8705;BME280;4389;41.932;25.904;2022-08-04T11:40:57;100341.59;;;34.06;29.29
8705;BME280;4389;41.932;25.904;2022-08-04T11:43:28;100341.97;;;34.23;28.85
8705;BME280;4389;41.932;25.904;2022-08-04T11:46:02;100339.69;;;34.07;29.51
8705;BME280;4389;41.932;25.904;2022-08-04T11:48:34;100338.34;;;34.28;28.82
8705;BME280;4389;41.932;25.904;2022-08-04T11:51:04;100340.91;;;34.61;28.43
8705;BME280;4389;41.932;25.904;2022-08-04T11:53:37;100328.25;;;34.84;28.58
8705;BME280;4389;41.932;25.904;2022-08-04T11:56:11;100326.81;;;34.68;28.53
8705;BME280;4389;41.932;25.904;2022-08-04T11:58:38;100326.19;;;34.10;27.99
8705;BME280;4389;41.932;25.904;2022-08-04T12:01:22;100324.66;;;33.99;28.42
8705;BME280;4389;41.932;25.904;2022-08-04T12:04:00;100321.28;;;34.07;28.11
8705;BME280;4389;41.932;25.904;2022-08-04T12:06:37;100317.84;;;33.97;27.72
8705;BME280;4389;41.932;25.904;2022-08-04T12:09:11;100316.25;;;33.91;27.87
8705;BME280;4389;41.932;25.904;2022-08-04T12:11:53;100312.25;;;34.25;27.64
8705;BME280;4389;41.932;25.904;2022-08-04T12:14:27;100306.94;;;34.52;26.42
8705;BME280;4389;41.932;25.904;2022-08-04T12:16:58;100302.97;;;34.82;26.50
8705;BME280;4389;41.932;25.904;2022-08-04T12:19:30;100302.56;;;35.20;26.38
8705;BME280;4389;41.932;25.904;2022-08-04T12:22:03;100324.53;;;35.25;26.69
8705;BME280;4389;41.932;25.904;2022-08-04T12:24:34;100317.13;;;34.70;26.92
8705;BME280;4389;41.932;25.904;2022-08-04T12:27:06;100323.78;;;34.04;26.61
8705;BME280;4389;41.932;25.904;2022-08-04T12:29:39;100323.44;;;33.58;27.65
8705;BME280;4389;41.932;25.904;2022-08-04T12:32:16;100315.78;;;33.27;28.67
8705;BME280;4389;41.932;25.904;2022-08-04T12:34:50;100312.31;;;33.11;28.41
8705;BME280;4389;41.932;25.904;2022-08-04T12:37:30;100307.41;;;33.08;28.43
8705;BME280;4389;41.932;25.904;2022-08-04T12:40:07;100309.31;;;33.13;28.96
8705;BME280;4389;41.932;25.904;2022-08-04T12:42:44;100305.06;;;32.97;29.63
8705;BME280;4389;41.932;25.904;2022-08-04T12:45:14;100307.44;;;33.03;29.39
8705;BME280;4389;41.932;25.904;2022-08-04T12:47:44;100293.50;;;33.00;28.23
8705;BME280;4389;41.932;25.904;2022-08-04T12:50:13;100295.09;;;33.06;29.49
8705;BME280;4389;41.932;25.904;2022-08-04T12:52:47;100302.72;;;33.09;28.93
8705;BME280;4389;41.932;25.904;2022-08-04T12:55:16;100302.84;;;33.32;28.86
8705;BME280;4389;41.932;25.904;2022-08-04T12:57:44;100299.66;;;33.49;29.65
8705;BME280;4389;41.932;25.904;2022-08-04T13:00:21;100284.88;;;33.68;28.66
8705;BME280;4389;41.932;25.904;2022-08-04T13:02:50;100290.41;;;33.63;29.16
8705;BME280;4389;41.932;25.904;2022-08-04T13:05:20;100285.94;;;33.72;28.84
8705;BME280;4389;41.932;25.904;2022-08-04T13:07:51;100289.72;;;33.81;29.29
8705;BME280;4389;41.932;25.904;2022-08-04T13:10:21;100290.88;;;33.75;29.37
8705;BME280;4389;41.932;25.904;2022-08-04T13:12:55;100289.34;;;33.64;28.87
8705;BME280;4389;41.932;25.904;2022-08-04T13:15:25;100298.13;;;33.61;28.75
8705;BME280;4389;41.932;25.904;2022-08-04T13:17:56;100297.63;;;33.59;29.22
8705;BME280;4389;41.932;25.904;2022-08-04T13:20:26;100297.81;;;33.39;28.86
8705;BME280;4389;41.932;25.904;2022-08-04T13:23:05;100290.97;;;33.37;29.13
8705;BME280;4389;41.932;25.904;2022-08-04T13:25:34;100291.09;;;33.22;29.04
8705;BME280;4389;41.932;25.904;2022-08-04T13:28:05;100292.59;;;33.09;28.92
8705;BME280;4389;41.932;25.904;2022-08-04T13:30:34;100296.88;;;33.20;28.86
8705;BME280;4389;41.932;25.904;2022-08-04T13:33:02;100282.50;;;33.33;28.97
8705;BME280;4389;41.932;25.904;2022-08-04T13:35:31;100295.19;;;33.24;29.10
8705;BME280;4389;41.932;25.904;2022-08-04T13:38:00;100281.75;;;33.28;28.91
8705;BME280;4389;41.932;25.904;2022-08-04T13:40:29;100293.88;;;33.50;27.86
8705;BME280;4389;41.932;25.904;2022-08-04T13:42:57;100286.75;;;33.73;28.07
8705;BME280;4389;41.932;25.904;2022-08-04T13:45:26;100284.25;;;34.00;26.46
8705;BME280;4389;41.932;25.904;2022-08-04T13:47:58;100281.59;;;34.13;26.12
8705;BME280;4389;41.932;25.904;2022-08-04T13:50:28;100286.97;;;34.23;26.82
8705;BME280;4389;41.932;25.904;2022-08-04T13:52:57;100285.47;;;34.12;26.34
8705;BME280;4389;41.932;25.904;2022-08-04T13:55:29;100273.66;;;34.35;26.10
8705;BME280;4389;41.932;25.904;2022-08-04T13:58:06;100273.72;;;34.67;25.92
8705;BME280;4389;41.932;25.904;2022-08-04T14:00:44;100278.50;;;34.43;26.39
8705;BME280;4389;41.932;25.904;2022-08-04T14:03:17;100276.19;;;34.08;26.31
8705;BME280;4389;41.932;25.904;2022-08-04T14:08:52;100271.78;;;34.31;25.48
8705;BME280;4389;41.932;25.904;2022-08-04T14:11:30;100273.94;;;34.52;25.38
8705;BME280;4389;41.932;25.904;2022-08-04T14:13:59;100262.41;;;34.87;24.86
8705;BME280;4389;41.932;25.904;2022-08-04T14:16:26;100261.09;;;34.98;24.99
8705;BME280;4389;41.932;25.904;2022-08-04T14:18:58;100257.78;;;35.01;25.64
8705;BME280;4389;41.932;25.904;2022-08-04T14:21:26;100262.78;;;34.99;24.85
8705;BME280;4389;41.932;25.904;2022-08-04T14:23:55;100259.81;;;34.77;25.07